< < Back
Terminal Aerodrome Forecast


Current Version              Previous Versions:   1  2  3  4  5  6  7  8  9  

Terminal Aerodrome Forecast

057
FTUS44 KBMX 021440 AAB
TAFTCL
TAF AMD
KTCL 021440Z 0215/0312 19005KT 6SM BR OVC005
     FM021530 20006KT P6SM VCSH BKN012 OVC090
     FM021700 22007KT 6SM SHRA VCTS BKN025CB OVC090
      TEMPO 0217/0220 4SM TSRA OVC025CB
     FM022000 23008KT P6SM SHRA VCTS BKN050CB OVC090
     FM030800 VRB03KT 5SM BR VCSH OVC003=



Latest METAR

614
SAUS70 KWBC 022100 RRE
MTRTCL
METAR KTCL 022053Z 23006KT 3SM -RA BR FEW034 BKN080 OVC100 22/21 A2993
RMK AO2 LTG DSNT SE RAB04E15B34 SLP132 P0001 60001 T02220206
56017


USA.gov is the U.S. government's official web portal to all federal, state and local government web resources and services.